Time;durP1;ratioP1;P1;durP2;ratioP2;P2;SDS_P1;SDS_P2;PMS_P1;PMS_P2;Temp;Humidity;BMP_temperature;BMP_pressure;BME280_temperature;BME280_humidity;BME280_pressure;Samples;Min_cycle;Max_cycle;Signal;HPM_P1;HPM_P2
2023/09/13 00:00:57;;;;;;;57.50;46.10;;;;;;;;;;5117556;28;20416;-85
2023/09/13 00:03:24;;;;;;;47.50;43.47;;;;;;;;;;5117246;28;20483;-86
2023/09/13 00:05:51;;;;;;;49.80;45.40;;;;;;;;;;5116450;28;20455;-86
2023/09/13 00:08:19;;;;;;;47.50;43.87;;;;;;;;;;5115950;28;20518;-85
2023/09/13 00:11:02;;;;;;;48.23;43.97;;;;;;;;;;5116584;28;20464;-86
2023/09/13 00:13:29;;;;;;;49.37;45.07;;;;;;;;;;5116989;28;20451;-86
2023/09/13 00:15:56;;;;;;;45.50;42.00;;;;;;;;;;5116713;28;20478;-85
2023/09/13 00:18:23;;;;;;;48.00;44.07;;;;;;;;;;5116403;28;20436;-86
2023/09/13 00:20:52;;;;;;;49.50;45.33;;;;;;;;;;5116237;28;20445;-86
2023/09/13 00:23:21;;;;;;;53.70;48.90;;;;;;;;;;5116356;28;20439;-86
2023/09/13 00:25:48;;;;;;;49.07;44.70;;;;;;;;;;5116983;28;20940;-86
2023/09/13 00:28:16;;;;;;;51.57;47.23;;;;;;;;;;5116053;28;20436;-85
2023/09/13 00:30:43;;;;;;;59.73;53.47;;;;;;;;;;5115840;28;20518;-86
2023/09/13 00:33:10;;;;;;;55.50;50.13;;;;;;;;;;5116043;28;20452;-86
2023/09/13 00:35:38;;;;;;;60.37;54.50;;;;;;;;;;5117773;28;20483;-86
2023/09/13 00:38:05;;;;;;;57.83;52.23;;;;;;;;;;5117831;28;20437;-85
2023/09/13 00:40:33;;;;;;;58.60;53.23;;;;;;;;;;5117834;28;20456;-86
2023/09/13 00:43:00;;;;;;;56.90;51.97;;;;;;;;;;5121202;28;20434;-86
2023/09/13 00:45:29;;;;;;;58.33;52.40;;;;;;;;;;5122523;28;20444;-86
2023/09/13 00:47:56;;;;;;;58.40;52.33;;;;;;;;;;5122091;28;20447;-85
2023/09/13 00:50:23;;;;;;;61.13;55.53;;;;;;;;;;5121838;28;20446;-85
2023/09/13 00:52:52;;;;;;;54.70;50.20;;;;;;;;;;5121626;28;20414;-85
2023/09/13 00:55:21;;;;;;;57.80;52.40;;;;;;;;;;5122398;28;21326;-85
2023/09/13 00:57:51;;;;;;;58.07;52.40;;;;;;;;;;5120944;28;20447;-86
2023/09/13 01:00:19;;;;;;;59.80;54.60;;;;;;;;;;5119242;28;20468;-86
2023/09/13 01:02:46;;;;;;;52.43;47.83;;;;;;;;;;5119166;28;20455;-86
2023/09/13 01:05:14;;;;;;;62.47;56.77;;;;;;;;;;5118964;28;20440;-86
2023/09/13 01:07:43;;;;;;;57.77;52.57;;;;;;;;;;5118192;28;20436;-86
2023/09/13 01:10:10;;;;;;;56.00;50.93;;;;;;;;;;5118531;28;20479;-86
2023/09/13 01:12:37;;;;;;;63.67;57.17;;;;;;;;;;5118727;28;20421;-86
2023/09/13 01:15:07;;;;;;;59.73;54.43;;;;;;;;;;5118610;28;20939;-86
2023/09/13 01:17:39;;;;;;;62.00;56.13;;;;;;;;;;5117944;28;20464;-86
2023/09/13 01:20:11;;;;;;;62.17;56.67;;;;;;;;;;5118903;28;20487;-86
2023/09/13 01:22:53;;;;;;;64.13;55.93;;;;;;;;;;5118510;28;20481;-86
2023/09/13 01:25:28;;;;;;;61.27;55.50;;;;;;;;;;5101183;28;20473;-85
2023/09/13 01:27:58;;;;;;;63.30;57.53;;;;;;;;;;5118024;28;20404;-86
2023/09/13 01:30:28;;;;;;;61.33;55.83;;;;;;;;;;5097624;28;20473;-86
2023/09/13 01:32:55;;;;;;;59.83;54.07;;;;;;;;;;5097648;28;20523;-86
2023/09/13 01:35:22;;;;;;;61.93;56.43;;;;;;;;;;5097163;28;21014;-86
2023/09/13 01:37:49;;;;;;;61.73;55.93;;;;;;;;;;5097218;28;20442;-86
2023/09/13 01:40:16;;;;;;;60.63;54.93;;;;;;;;;;5097375;28;20931;-86
2023/09/13 01:42:43;;;;;;;59.53;54.03;;;;;;;;;;5097088;28;20444;-86
2023/09/13 01:45:12;;;;;;;62.57;56.43;;;;;;;;;;5097265;28;20444;-86
2023/09/13 01:47:43;;;;;;;63.67;57.67;;;;;;;;;;5100064;28;20447;-86
2023/09/13 01:50:10;;;;;;;61.77;56.57;;;;;;;;;;5117932;28;20823;-87
2023/09/13 01:52:37;;;;;;;65.87;59.17;;;;;;;;;;5117766;28;20451;-86
2023/09/13 01:55:06;;;;;;;65.17;58.50;;;;;;;;;;5117105;28;20436;-86
2023/09/13 01:57:33;;;;;;;63.73;57.50;;;;;;;;;;5096641;28;20480;-86
2023/09/13 02:00:00;;;;;;;68.73;61.80;;;;;;;;;;5097054;28;20465;-86
2023/09/13 02:02:27;;;;;;;71.93;64.47;;;;;;;;;;5097116;28;20502;-86
2023/09/13 02:04:56;;;;;;;65.80;59.10;;;;;;;;;;5096657;28;20489;-86
2023/09/13 02:07:23;;;;;;;73.00;60.63;;;;;;;;;;5096145;28;20440;-87
2023/09/13 02:09:52;;;;;;;84.23;64.03;;;;;;;;;;5096110;28;20476;-86
2023/09/13 02:12:19;;;;;;;78.17;64.57;;;;;;;;;;5095894;28;21001;-87
2023/09/13 02:14:46;;;;;;;74.87;65.43;;;;;;;;;;5095910;28;20441;-86
2023/09/13 02:17:13;;;;;;;102.10;73.00;;;;;;;;;;5095165;28;20483;-86
2023/09/13 02:19:40;;;;;;;95.83;71.37;;;;;;;;;;5095955;28;20530;-86
2023/09/13 02:22:08;;;;;;;90.40;69.93;;;;;;;;;;5096878;28;20819;-86
2023/09/13 02:24:36;;;;;;;93.30;68.83;;;;;;;;;;5096817;28;20480;-86
2023/09/13 02:27:03;;;;;;;81.87;72.87;;;;;;;;;;5095795;28;20461;-86
2023/09/13 02:29:30;;;;;;;89.63;72.37;;;;;;;;;;5095742;28;20844;-87
2023/09/13 02:31:57;;;;;;;92.33;71.60;;;;;;;;;;5096097;28;20437;-86
2023/09/13 02:34:24;;;;;;;103.00;78.27;;;;;;;;;;5095664;28;20436;-87
2023/09/13 02:36:52;;;;;;;85.47;69.53;;;;;;;;;;5095440;28;20458;-87
2023/09/13 02:39:32;;;;;;;109.23;75.23;;;;;;;;;;5095846;28;20468;-87
2023/09/13 02:41:59;;;;;;;96.87;72.10;;;;;;;;;;5095436;28;20465;-87
2023/09/13 02:44:26;;;;;;;90.70;69.20;;;;;;;;;;5095863;28;20436;-87
2023/09/13 02:46:53;;;;;;;90.37;73.73;;;;;;;;;;5094973;28;20420;-87
2023/09/13 02:49:20;;;;;;;107.37;74.13;;;;;;;;;;5095285;28;20985;-87
2023/09/13 02:51:48;;;;;;;75.87;67.73;;;;;;;;;;5095258;28;20416;-87
2023/09/13 02:54:15;;;;;;;81.33;72.60;;;;;;;;;;5095329;28;20437;-86
2023/09/13 02:56:43;;;;;;;83.17;74.43;;;;;;;;;;5094466;28;20477;-87
2023/09/13 02:59:10;;;;;;;77.97;69.67;;;;;;;;;;5095330;28;20809;-86
2023/09/13 03:01:38;;;;;;;77.53;69.27;;;;;;;;;;5095299;28;20852;-87
2023/09/13 03:04:05;;;;;;;91.97;72.57;;;;;;;;;;5094997;28;20430;-86
2023/09/13 03:06:32;;;;;;;88.10;71.27;;;;;;;;;;5094021;28;20445;-87
2023/09/13 03:08:59;;;;;;;78.70;70.07;;;;;;;;;;5095012;28;20461;-87
2023/09/13 03:11:26;;;;;;;80.10;69.60;;;;;;;;;;5095404;28;20456;-87
2023/09/13 03:13:54;;;;;;;84.87;72.27;;;;;;;;;;5094683;28;20441;-86
2023/09/13 03:16:22;;;;;;;81.67;70.93;;;;;;;;;;5094181;28;20838;-87
2023/09/13 03:18:51;;;;;;;101.60;75.40;;;;;;;;;;5094646;28;20956;-87
2023/09/13 03:21:18;;;;;;;109.30;76.40;;;;;;;;;;5094335;28;20456;-87
2023/09/13 03:23:47;;;;;;;115.43;76.00;;;;;;;;;;5093946;28;20441;-87
2023/09/13 03:26:15;;;;;;;111.23;80.10;;;;;;;;;;5093657;28;20502;-87
2023/09/13 03:28:44;;;;;;;109.17;77.03;;;;;;;;;;5093947;28;20926;-87
2023/09/13 03:31:12;;;;;;;92.33;72.30;;;;;;;;;;5094360;28;20885;-87
2023/09/13 03:33:40;;;;;;;111.87;78.33;;;;;;;;;;5094465;28;20407;-87
2023/09/13 03:36:08;;;;;;;86.73;76.73;;;;;;;;;;5094354;28;20455;-87
2023/09/13 03:38:35;;;;;;;91.17;73.47;;;;;;;;;;5094317;28;20433;-87
2023/09/13 03:41:03;;;;;;;101.67;78.43;;;;;;;;;;5094461;28;20820;-87
2023/09/13 03:43:30;;;;;;;89.10;78.17;;;;;;;;;;5094441;28;20482;-87
2023/09/13 03:45:57;;;;;;;115.67;81.77;;;;;;;;;;5094321;28;20924;-87
2023/09/13 03:48:26;;;;;;;115.70;84.53;;;;;;;;;;5093922;28;20455;-87
2023/09/13 03:50:59;;;;;;;94.90;75.53;;;;;;;;;;5094339;28;20437;-87
2023/09/13 03:53:27;;;;;;;95.83;76.97;;;;;;;;;;5094251;28;20889;-87
2023/09/13 03:55:54;;;;;;;95.93;74.90;;;;;;;;;;5094415;28;20436;-87
2023/09/13 03:58:21;;;;;;;102.37;77.07;;;;;;;;;;5093583;28;20441;-87
2023/09/13 04:00:50;;;;;;;95.07;78.37;;;;;;;;;;5094040;28;20453;-87
2023/09/13 04:03:18;;;;;;;104.10;82.00;;;;;;;;;;5094427;28;20440;-87
2023/09/13 04:05:46;;;;;;;108.87;81.67;;;;;;;;;;5094170;28;20455;-87
2023/09/13 04:08:13;;;;;;;94.20;81.17;;;;;;;;;;5093517;28;20419;-87
2023/09/13 04:10:40;;;;;;;96.03;82.70;;;;;;;;;;5093877;28;20961;-87
2023/09/13 04:13:08;;;;;;;99.50;81.80;;;;;;;;;;5094195;28;20441;-87
2023/09/13 04:15:35;;;;;;;118.57;90.10;;;;;;;;;;5094020;28;20445;-87
2023/09/13 04:18:03;;;;;;;102.00;85.60;;;;;;;;;;5092384;28;20447;-87
2023/09/13 04:20:30;;;;;;;104.93;82.97;;;;;;;;;;5094045;28;20442;-87
2023/09/13 04:22:59;;;;;;;102.87;81.80;;;;;;;;;;5093793;28;20436;-87
2023/09/13 04:25:26;;;;;;;97.80;83.47;;;;;;;;;;5093679;28;20998;-87
2023/09/13 04:27:53;;;;;;;112.73;84.57;;;;;;;;;;5093273;28;20441;-86
2023/09/13 04:30:20;;;;;;;135.77;95.77;;;;;;;;;;5093510;28;20447;-87
2023/09/13 04:32:48;;;;;;;100.63;83.10;;;;;;;;;;5093694;28;20432;-87
2023/09/13 04:35:15;;;;;;;93.17;83.53;;;;;;;;;;5093493;28;20468;-87
2023/09/13 04:37:43;;;;;;;103.73;88.93;;;;;;;;;;5093126;28;20455;-87
2023/09/13 04:40:13;;;;;;;101.27;90.73;;;;;;;;;;5093319;28;20468;-87
2023/09/13 04:42:42;;;;;;;96.20;86.03;;;;;;;;;;5093584;28;21323;-87
2023/09/13 04:45:10;;;;;;;114.97;94.00;;;;;;;;;;5093562;28;20802;-87
2023/09/13 04:47:37;;;;;;;99.67;89.90;;;;;;;;;;5092994;28;20951;-87
2023/09/13 04:50:05;;;;;;;105.13;94.77;;;;;;;;;;5093785;28;20492;-87
2023/09/13 04:52:32;;;;;;;104.47;94.07;;;;;;;;;;5093730;28;20490;-86
2023/09/13 04:54:59;;;;;;;108.30;96.70;;;;;;;;;;5093746;28;20493;-87
2023/09/13 04:57:27;;;;;;;106.40;94.90;;;;;;;;;;5093137;28;20484;-87
2023/09/13 04:59:55;;;;;;;111.73;100.57;;;;;;;;;;5093074;28;20491;-87
2023/09/13 05:02:22;;;;;;;100.87;92.20;;;;;;;;;;5093309;28;20928;-87
2023/09/13 05:04:49;;;;;;;103.13;92.93;;;;;;;;;;5093823;28;20443;-86
2023/09/13 05:07:16;;;;;;;106.40;95.97;;;;;;;;;;5093297;28;20940;-87
2023/09/13 05:09:43;;;;;;;109.13;94.90;;;;;;;;;;5093148;28;20460;-87
2023/09/13 05:12:10;;;;;;;106.43;95.13;;;;;;;;;;5093212;28;20415;-86
2023/09/13 05:14:42;;;;;;;105.60;94.60;;;;;;;;;;5093909;28;20448;-87
2023/09/13 05:17:09;;;;;;;94.40;84.97;;;;;;;;;;5092711;28;20448;-87
2023/09/13 05:19:36;;;;;;;104.00;93.07;;;;;;;;;;5093757;28;20880;-86
2023/09/13 05:22:03;;;;;;;112.07;100.20;;;;;;;;;;5093206;28;20444;-87
2023/09/13 05:24:30;;;;;;;120.10;92.30;;;;;;;;;;5093231;28;20438;-87
2023/09/13 05:26:57;;;;;;;111.77;95.77;;;;;;;;;;5093192;28;20440;-86
2023/09/13 05:29:45;;;;;;;117.80;93.60;;;;;;;;;;5096158;28;20466;-87
2023/09/13 05:32:12;;;;;;;116.97;94.23;;;;;;;;;;5096368;28;20539;-87
2023/09/13 05:34:39;;;;;;;100.83;89.77;;;;;;;;;;5096355;28;20452;-86
2023/09/13 05:37:07;;;;;;;117.03;92.90;;;;;;;;;;5096464;28;20480;-87
2023/09/13 05:39:34;;;;;;;101.50;85.70;;;;;;;;;;5096909;28;20465;-87
2023/09/13 05:42:02;;;;;;;104.83;86.67;;;;;;;;;;5096751;28;21166;-87
2023/09/13 05:44:30;;;;;;;105.70;88.53;;;;;;;;;;5096895;28;20407;-87
2023/09/13 05:46:59;;;;;;;118.87;92.40;;;;;;;;;;5095827;28;20499;-88
2023/09/13 05:49:26;;;;;;;111.60;87.27;;;;;;;;;;5096202;28;20456;-88
2023/09/13 05:51:53;;;;;;;116.33;88.30;;;;;;;;;;5096638;28;20444;-87
2023/09/13 05:54:20;;;;;;;106.07;82.17;;;;;;;;;;5096495;28;20498;-86
2023/09/13 05:56:47;;;;;;;130.27;90.23;;;;;;;;;;5095632;28;20480;-86
2023/09/13 05:59:14;;;;;;;116.07;86.60;;;;;;;;;;5096575;28;20449;-87
2023/09/13 06:01:41;;;;;;;99.53;83.93;;;;;;;;;;5096681;28;20419;-87
2023/09/13 06:04:10;;;;;;;102.43;84.50;;;;;;;;;;5096344;28;20494;-87
2023/09/13 06:06:37;;;;;;;112.90;86.83;;;;;;;;;;5095795;28;20459;-87
2023/09/13 06:09:04;;;;;;;124.60;93.57;;;;;;;;;;5096094;28;20464;-87
2023/09/13 06:11:32;;;;;;;109.83;94.70;;;;;;;;;;5096170;28;20441;-87
2023/09/13 06:13:59;;;;;;;110.37;90.50;;;;;;;;;;5095949;28;20822;-87
2023/09/13 06:16:26;;;;;;;115.63;93.10;;;;;;;;;;5100398;28;20946;-87
2023/09/13 06:18:54;;;;;;;126.27;93.30;;;;;;;;;;5095461;28;20499;-88
2023/09/13 06:21:22;;;;;;;105.27;88.90;;;;;;;;;;5094926;28;20476;-87
2023/09/13 06:23:49;;;;;;;97.73;88.03;;;;;;;;;;5095510;28;20448;-87
2023/09/13 06:26:16;;;;;;;96.60;86.27;;;;;;;;;;5098930;28;20431;-87
2023/09/13 06:28:43;;;;;;;92.17;82.97;;;;;;;;;;5115967;28;20451;-88
2023/09/13 06:31:10;;;;;;;91.50;82.90;;;;;;;;;;5115703;28;20422;-88
2023/09/13 06:33:37;;;;;;;94.13;85.77;;;;;;;;;;5115279;28;20803;-88
2023/09/13 06:36:05;;;;;;;94.17;85.43;;;;;;;;;;5116123;28;20805;-89
2023/09/13 06:38:33;;;;;;;93.97;85.73;;;;;;;;;;5111871;28;20500;-88
2023/09/13 06:41:01;;;;;;;87.50;79.70;;;;;;;;;;5099218;28;20429;-88
2023/09/13 06:43:28;;;;;;;96.40;86.73;;;;;;;;;;5115168;28;20925;-88
2023/09/13 06:45:55;;;;;;;90.80;82.00;;;;;;;;;;5115043;28;20916;-88
2023/09/13 06:48:23;;;;;;;91.50;82.93;;;;;;;;;;5112612;28;20463;-88
2023/09/13 06:50:50;;;;;;;91.73;82.87;;;;;;;;;;5115376;28;20474;-88
2023/09/13 06:53:17;;;;;;;97.40;86.73;;;;;;;;;;5115867;28;20440;-87
2023/09/13 06:55:45;;;;;;;87.97;79.77;;;;;;;;;;5115785;28;20414;-87
2023/09/13 06:58:12;;;;;;;87.47;79.20;;;;;;;;;;5115414;28;20457;-87
2023/09/13 07:00:41;;;;;;;83.80;76.60;;;;;;;;;;5115826;28;20460;-87
2023/09/13 07:03:09;;;;;;;75.33;68.90;;;;;;;;;;5115963;28;20451;-87
2023/09/13 07:05:36;;;;;;;88.57;80.97;;;;;;;;;;5115635;28;20456;-87
2023/09/13 07:08:03;;;;;;;80.57;73.97;;;;;;;;;;5115178;28;20436;-88
2023/09/13 07:10:30;;;;;;;78.53;71.83;;;;;;;;;;5115147;28;20787;-87
2023/09/13 07:12:59;;;;;;;74.17;67.67;;;;;;;;;;5114780;28;20918;-88
2023/09/13 07:15:27;;;;;;;76.83;70.53;;;;;;;;;;5114803;28;20478;-88
2023/09/13 07:17:54;;;;;;;72.30;66.50;;;;;;;;;;5114263;28;20521;-88
2023/09/13 07:20:22;;;;;;;81.80;74.60;;;;;;;;;;5115086;28;20460;-88
2023/09/13 07:22:49;;;;;;;71.87;65.97;;;;;;;;;;5114905;28;20862;-87
2023/09/13 07:25:16;;;;;;;69.90;64.03;;;;;;;;;;5115169;28;20432;-88
2023/09/13 07:27:43;;;;;;;68.53;63.10;;;;;;;;;;5114765;28;20459;-88
2023/09/13 07:30:12;;;;;;;64.30;59.30;;;;;;;;;;5115324;28;20442;-89
2023/09/13 07:32:39;;;;;;;66.13;60.83;;;;;;;;;;5115200;28;20518;-88
2023/09/13 07:35:06;;;;;;;59.40;54.73;;;;;;;;;;5115014;28;20433;-88
2023/09/13 07:37:34;;;;;;;60.43;56.03;;;;;;;;;;5113396;28;20482;-88
2023/09/13 07:40:04;;;;;;;57.63;53.43;;;;;;;;;;5114039;28;20917;-89
2023/09/13 07:42:31;;;;;;;53.57;49.77;;;;;;;;;;5115348;28;20434;-89
2023/09/13 07:44:58;;;;;;;51.20;47.40;;;;;;;;;;5115196;28;20432;-89
2023/09/13 07:47:27;;;;;;;50.90;47.00;;;;;;;;;;5114605;28;20448;-89
2023/09/13 07:49:54;;;;;;;44.40;41.00;;;;;;;;;;5114910;28;20479;-90
2023/09/13 07:52:21;;;;;;;41.63;38.83;;;;;;;;;;5114613;28;20432;-89
2023/09/13 07:54:48;;;;;;;41.33;38.43;;;;;;;;;;5115020;28;20444;-89
2023/09/13 07:57:15;;;;;;;42.03;39.23;;;;;;;;;;5114398;28;20411;-89
2023/09/13 07:59:42;;;;;;;39.03;36.23;;;;;;;;;;5114968;28;20464;-89
2023/09/13 08:02:09;;;;;;;43.67;40.57;;;;;;;;;;5099867;28;20477;-87
2023/09/13 08:04:38;;;;;;;42.40;39.43;;;;;;;;;;5095022;28;20437;-86
2023/09/13 08:07:05;;;;;;;43.07;39.97;;;;;;;;;;5094661;28;20441;-87
2023/09/13 08:09:34;;;;;;;41.67;38.57;;;;;;;;;;5094894;28;20465;-87
2023/09/13 08:12:03;;;;;;;42.07;39.07;;;;;;;;;;5095156;28;20449;-86
2023/09/13 08:14:30;;;;;;;38.90;36.00;;;;;;;;;;5095401;28;20480;-87
2023/09/13 08:16:57;;;;;;;38.83;36.03;;;;;;;;;;5095207;28;20440;-85
2023/09/13 08:19:24;;;;;;;39.07;36.37;;;;;;;;;;5108024;28;20488;-85
2023/09/13 08:21:52;;;;;;;38.63;35.97;;;;;;;;;;5117040;28;20456;-82
2023/09/13 08:24:20;;;;;;;38.63;35.83;;;;;;;;;;5105250;28;20441;-84
2023/09/13 08:26:47;;;;;;;36.77;34.27;;;;;;;;;;5101082;28;20453;-84
2023/09/13 08:29:14;;;;;;;42.40;39.33;;;;;;;;;;5106476;28;20475;-83
2023/09/13 08:31:41;;;;;;;43.23;40.27;;;;;;;;;;5119204;28;20468;-82
2023/09/13 08:34:08;;;;;;;41.87;38.87;;;;;;;;;;5121166;28;21014;-87
2023/09/13 08:36:35;;;;;;;41.70;38.60;;;;;;;;;;5118992;28;20459;-86
2023/09/13 08:39:05;;;;;;;38.27;35.57;;;;;;;;;;5103601;28;20496;-81
2023/09/13 08:41:32;;;;;;;42.07;39.07;;;;;;;;;;5101527;28;20445;-84
2023/09/13 08:44:02;;;;;;;44.50;41.13;;;;;;;;;;5096744;28;20464;-83
2023/09/13 08:46:30;;;;;;;42.17;39.03;;;;;;;;;;5096947;28;20514;-88
2023/09/13 08:48:58;;;;;;;42.43;39.00;;;;;;;;;;5104006;28;20518;-87
2023/09/13 08:51:27;;;;;;;42.33;39.10;;;;;;;;;;5094510;28;20444;-89
2023/09/13 08:53:54;;;;;;;39.40;36.40;;;;;;;;;;5093984;28;20476;-89
2023/09/13 08:56:23;;;;;;;41.80;38.50;;;;;;;;;;5093252;28;20433;-89
2023/09/13 08:58:51;;;;;;;41.03;38.17;;;;;;;;;;5095194;28;21274;-84
2023/09/13 09:01:20;;;;;;;38.37;35.67;;;;;;;;;;5093334;28;20412;-89
2023/09/13 09:03:48;;;;;;;37.10;34.30;;;;;;;;;;5098149;28;20914;-89
2023/09/13 09:06:17;;;;;;;35.57;33.07;;;;;;;;;;5111470;28;20429;-90
2023/09/13 09:08:46;;;;;;;33.90;31.50;;;;;;;;;;5096700;28;20437;-89
2023/09/13 09:11:13;;;;;;;37.27;34.57;;;;;;;;;;5106739;28;20614;-90
2023/09/13 09:13:43;;;;;;;37.33;34.50;;;;;;;;;;5116892;28;20444;-89
2023/09/13 09:16:10;;;;;;;38.47;35.77;;;;;;;;;;5116462;28;20451;-88
2023/09/13 09:18:40;;;;;;;39.20;36.43;;;;;;;;;;5098105;28;20481;-87
2023/09/13 09:21:07;;;;;;;36.37;33.60;;;;;;;;;;5097349;28;20436;-89
2023/09/13 09:23:35;;;;;;;37.20;34.20;;;;;;;;;;5098159;28;20472;-89
2023/09/13 09:26:04;;;;;;;37.13;34.17;;;;;;;;;;5117081;28;20422;-90
2023/09/13 09:28:31;;;;;;;37.87;35.07;;;;;;;;;;5116578;28;21212;-91
2023/09/13 09:31:00;;;;;;;38.47;35.33;;;;;;;;;;5115258;28;20478;-90
2023/09/13 09:33:28;;;;;;;39.03;36.00;;;;;;;;;;5117010;28;20451;-89
2023/09/13 09:35:56;;;;;;;37.50;34.77;;;;;;;;;;5117335;28;20902;-89
2023/09/13 09:38:24;;;;;;;38.30;35.60;;;;;;;;;;5116963;28;20479;-90
2023/09/13 09:40:51;;;;;;;36.80;33.80;;;;;;;;;;5117913;28;20475;-90
2023/09/13 09:43:18;;;;;;;37.90;35.20;;;;;;;;;;5116987;28;20479;-89
2023/09/13 09:45:45;;;;;;;35.80;33.30;;;;;;;;;;5117592;28;20444;-88
2023/09/13 09:48:13;;;;;;;37.83;34.93;;;;;;;;;;5122813;28;20440;-83
2023/09/13 09:50:43;;;;;;;38.33;35.53;;;;;;;;;;5124141;28;20459;-83
2023/09/13 09:53:13;;;;;;;39.47;36.27;;;;;;;;;;5124554;28;20451;-81
2023/09/13 09:55:40;;;;;;;40.77;37.70;;;;;;;;;;5122040;28;20450;-88
2023/09/13 09:58:07;;;;;;;41.50;38.20;;;;;;;;;;5110363;28;20480;-88
2023/09/13 10:00:44;;;;;;;39.80;36.60;;;;;;;;;;5096237;28;20451;-87
2023/09/13 10:03:17;;;;;;;43.00;39.33;;;;;;;;;;5096508;28;20417;-88
2023/09/13 10:05:52;;;;;;;43.50;39.80;;;;;;;;;;5096413;28;20441;-88
2023/09/13 10:08:19;;;;;;;43.63;40.23;;;;;;;;;;5096137;28;20897;-88
2023/09/13 10:10:47;;;;;;;45.80;42.40;;;;;;;;;;5095804;28;20432;-88
2023/09/13 10:13:15;;;;;;;47.67;43.97;;;;;;;;;;5095799;28;20502;-88
2023/09/13 10:15:42;;;;;;;50.47;46.50;;;;;;;;;;5095562;28;20437;-88
2023/09/13 10:18:13;;;;;;;51.73;47.23;;;;;;;;;;5095665;28;20485;-88
2023/09/13 10:20:40;;;;;;;56.40;51.70;;;;;;;;;;5095953;28;20504;-88
2023/09/13 10:23:08;;;;;;;53.50;49.10;;;;;;;;;;5096316;28;20437;-88
2023/09/13 10:25:36;;;;;;;54.23;49.70;;;;;;;;;;5096261;28;20440;-88
2023/09/13 10:28:04;;;;;;;45.37;41.30;;;;;;;;;;5095752;28;20438;-88
2023/09/13 10:30:33;;;;;;;31.37;29.37;;;;;;;;;;5095723;28;20526;-88
2023/09/13 10:33:01;;;;;;;28.83;27.20;;;;;;;;;;5111909;28;20451;-88
2023/09/13 10:35:29;;;;;;;27.80;26.10;;;;;;;;;;5116552;28;20455;-88
2023/09/13 10:38:01;;;;;;;27.43;25.70;;;;;;;;;;5115488;28;20770;-88
2023/09/13 10:40:32;;;;;;;27.77;26.27;;;;;;;;;;5116888;28;20471;-87
2023/09/13 10:43:00;;;;;;;25.37;24.07;;;;;;;;;;5116460;28;20506;-87
2023/09/13 10:45:27;;;;;;;25.07;23.77;;;;;;;;;;5116578;28;20455;-87
2023/09/13 10:47:55;;;;;;;26.50;25.10;;;;;;;;;;5115863;28;20451;-88
2023/09/13 10:50:23;;;;;;;25.37;24.07;;;;;;;;;;5116073;28;20464;-87
2023/09/13 10:52:51;;;;;;;26.50;24.90;;;;;;;;;;5115966;28;20489;-87
2023/09/13 10:55:18;;;;;;;28.40;26.63;;;;;;;;;;5115846;28;20953;-87
2023/09/13 10:57:46;;;;;;;26.77;25.17;;;;;;;;;;5114287;28;20471;-88
2023/09/13 11:00:15;;;;;;;27.10;25.50;;;;;;;;;;5115812;28;20502;-87
2023/09/13 11:02:44;;;;;;;28.20;26.50;;;;;;;;;;5115977;28;20498;-87
2023/09/13 11:05:12;;;;;;;27.13;25.53;;;;;;;;;;5114039;28;20457;-86
2023/09/13 11:07:41;;;;;;;27.07;25.57;;;;;;;;;;5095342;28;20452;-87
2023/09/13 11:10:12;;;;;;;27.53;25.67;;;;;;;;;;5095680;28;20465;-87
2023/09/13 11:12:40;;;;;;;26.77;25.17;;;;;;;;;;5115777;28;20464;-86
2023/09/13 11:15:14;;;;;;;26.73;24.70;;;;;;;;;;5113876;28;20451;-87
2023/09/13 11:17:43;;;;;;;28.47;26.27;;;;;;;;;;5107588;28;20447;-87
2023/09/13 11:20:24;;;;;;;28.03;25.83;;;;;;;;;;5113986;28;20491;-86
2023/09/13 11:23:08;;;;;;;26.13;24.40;;;;;;;;;;5115523;28;20463;-86
2023/09/13 11:25:36;;;;;;;26.73;24.53;;;;;;;;;;5114023;28;20857;-87
2023/09/13 11:28:08;;;;;;;25.17;23.57;;;;;;;;;;5113251;28;21051;-87
2023/09/13 11:30:49;;;;;;;26.50;24.80;;;;;;;;;;5114808;28;20520;-87
2023/09/13 11:33:16;;;;;;;25.57;23.97;;;;;;;;;;5114315;28;20448;-84
2023/09/13 11:35:44;;;;;;;24.13;22.43;;;;;;;;;;5116087;28;20452;-86
2023/09/13 11:38:12;;;;;;;24.50;22.80;;;;;;;;;;5110683;28;20448;-84
2023/09/13 11:40:42;;;;;;;23.00;21.50;;;;;;;;;;5116702;28;20987;-86
2023/09/13 11:43:11;;;;;;;23.40;22.00;;;;;;;;;;5117277;28;20812;-86
2023/09/13 11:45:40;;;;;;;22.30;20.80;;;;;;;;;;5116408;28;20469;-85
2023/09/13 11:48:09;;;;;;;22.03;20.27;;;;;;;;;;5116672;28;20452;-84
2023/09/13 11:50:46;;;;;;;22.53;20.93;;;;;;;;;;5118579;28;20777;-85
2023/09/13 11:53:15;;;;;;;22.03;20.73;;;;;;;;;;5118420;28;20456;-85
2023/09/13 11:55:45;;;;;;;22.97;21.47;;;;;;;;;;5117977;28;20444;-79
2023/09/13 11:58:16;;;;;;;21.97;20.40;;;;;;;;;;5117392;28;20436;-85
2023/09/13 12:00:43;;;;;;;22.30;20.60;;;;;;;;;;5118219;28;20513;-85
2023/09/13 12:03:11;;;;;;;21.97;20.47;;;;;;;;;;5118410;28;20455;-84
2023/09/13 12:05:39;;;;;;;21.40;19.80;;;;;;;;;;5118685;28;20455;-85
2023/09/13 12:08:19;;;;;;;21.47;20.17;;;;;;;;;;5119309;28;20458;-85
2023/09/13 12:10:47;;;;;;;21.50;20.10;;;;;;;;;;5119364;28;20496;-85
2023/09/13 12:13:14;;;;;;;21.57;20.03;;;;;;;;;;5114956;28;20482;-85
2023/09/13 12:15:56;;;;;;;21.90;20.40;;;;;;;;;;5096942;28;20410;-85
2023/09/13 12:18:24;;;;;;;22.03;20.57;;;;;;;;;;5096045;28;20457;-85
2023/09/13 12:20:51;;;;;;;21.37;19.97;;;;;;;;;;5096756;28;20449;-84
2023/09/13 12:23:18;;;;;;;22.00;20.50;;;;;;;;;;5097994;28;20444;-84
2023/09/13 12:25:46;;;;;;;22.00;20.50;;;;;;;;;;5097825;28;20436;-85
2023/09/13 12:28:25;;;;;;;21.43;20.13;;;;;;;;;;5097342;28;20956;-85
2023/09/13 12:30:52;;;;;;;21.10;19.63;;;;;;;;;;5098764;28;20461;-85
2023/09/13 12:33:19;;;;;;;21.83;20.33;;;;;;;;;;5097053;28;21016;-85
2023/09/13 12:35:48;;;;;;;21.63;20.40;;;;;;;;;;5098184;28;20428;-85
2023/09/13 12:38:16;;;;;;;21.43;19.90;;;;;;;;;;5098922;28;20445;-85
2023/09/13 12:40:48;;;;;;;20.87;19.47;;;;;;;;;;5102586;28;20583;-85
2023/09/13 12:43:15;;;;;;;21.40;19.93;;;;;;;;;;5102085;28;20457;-84
2023/09/13 12:45:42;;;;;;;20.40;19.20;;;;;;;;;;5102576;28;20433;-85
2023/09/13 12:48:09;;;;;;;21.00;19.70;;;;;;;;;;5100764;28;20785;-86
2023/09/13 12:50:36;;;;;;;20.03;18.83;;;;;;;;;;5102253;28;20991;-84
2023/09/13 12:53:05;;;;;;;21.40;19.93;;;;;;;;;;5101793;28;20451;-85
2023/09/13 12:55:32;;;;;;;20.60;19.30;;;;;;;;;;5103125;28;20449;-84
2023/09/13 12:58:04;;;;;;;21.03;19.67;;;;;;;;;;5099632;28;20952;-82
2023/09/13 13:00:31;;;;;;;21.37;19.87;;;;;;;;;;5107698;28;20593;-86
2023/09/13 13:02:59;;;;;;;21.57;20.17;;;;;;;;;;5120987;28;20924;-85
2023/09/13 13:05:26;;;;;;;22.00;20.47;;;;;;;;;;5121346;28;20446;-85
2023/09/13 13:07:53;;;;;;;21.73;20.27;;;;;;;;;;5100220;28;20462;-84
2023/09/13 13:10:21;;;;;;;22.57;20.97;;;;;;;;;;5100640;28;20821;-84
2023/09/13 13:12:54;;;;;;;22.23;20.30;;;;;;;;;;5099535;28;20956;-85
2023/09/13 13:15:21;;;;;;;22.03;20.63;;;;;;;;;;5100209;28;20448;-85
2023/09/13 13:17:50;;;;;;;21.50;20.00;;;;;;;;;;5099647;28;20449;-85
2023/09/13 13:20:18;;;;;;;21.80;20.40;;;;;;;;;;5099567;28;20502;-85
2023/09/13 13:22:45;;;;;;;23.33;21.13;;;;;;;;;;5099431;28;20439;-85
2023/09/13 13:25:12;;;;;;;21.93;20.40;;;;;;;;;;5097177;28;20438;-88
2023/09/13 13:27:40;;;;;;;21.40;20.00;;;;;;;;;;5096377;28;20445;-88
2023/09/13 13:30:08;;;;;;;21.43;19.93;;;;;;;;;;5099249;28;20467;-85
2023/09/13 13:32:35;;;;;;;20.83;19.33;;;;;;;;;;5101464;28;20832;-85
2023/09/13 13:35:04;;;;;;;22.57;20.90;;;;;;;;;;5100596;28;20441;-84
2023/09/13 13:37:31;;;;;;;22.57;20.70;;;;;;;;;;5100436;28;20797;-83
2023/09/13 13:39:58;;;;;;;21.73;20.33;;;;;;;;;;5101073;28;20459;-86
2023/09/13 13:42:25;;;;;;;20.97;19.63;;;;;;;;;;5099710;28;20495;-83
2023/09/13 13:44:54;;;;;;;21.33;19.93;;;;;;;;;;5100852;28;20455;-82
2023/09/13 13:47:21;;;;;;;20.83;19.60;;;;;;;;;;5100127;28;20422;-84
2023/09/13 13:49:48;;;;;;;21.47;19.87;;;;;;;;;;5100978;28;20464;-83
2023/09/13 13:52:15;;;;;;;21.50;20.00;;;;;;;;;;5104066;28;20795;-84
2023/09/13 13:54:42;;;;;;;21.57;20.17;;;;;;;;;;5119889;28;20426;-82
2023/09/13 13:57:09;;;;;;;21.10;19.70;;;;;;;;;;5117206;28;20464;-76
2023/09/13 13:59:36;;;;;;;21.00;19.70;;;;;;;;;;5118809;28;20491;-85
2023/09/13 14:02:04;;;;;;;21.10;19.70;;;;;;;;;;5120321;28;20794;-85
2023/09/13 14:04:32;;;;;;;21.57;20.27;;;;;;;;;;5118870;28;20440;-83
2023/09/13 14:06:59;;;;;;;21.67;20.17;;;;;;;;;;5119869;28;20439;-82
2023/09/13 14:09:26;;;;;;;22.27;20.70;;;;;;;;;;5102284;28;20473;-85
2023/09/13 14:11:53;;;;;;;22.07;20.60;;;;;;;;;;5110023;28;20461;-83
2023/09/13 14:14:20;;;;;;;22.10;20.60;;;;;;;;;;5112870;28;21260;-86
2023/09/13 14:16:47;;;;;;;22.17;20.67;;;;;;;;;;5097479;28;20444;-83
2023/09/13 14:19:16;;;;;;;22.50;20.83;;;;;;;;;;5110566;28;20468;-85